Time;durP1;ratioP1;P1;durP2;ratioP2;P2;SDS_P1;SDS_P2;PMS_P1;PMS_P2;Temp;Humidity;BMP_temperature;BMP_pressure;BME280_temperature;BME280_humidity;BME280_pressure;Samples;Min_cycle;Max_cycle;Signal;HPM_P1;HPM_P2
2021/06/08 00:02:02;;;;;;;8.03;7.43;;;21.80;36.60;;;;;;10438078;28;20227;-78
2021/06/08 00:07:04;;;;;;;6.90;6.30;;;21.80;37.20;;;;;;10438213;28;20244;-78
2021/06/08 00:12:08;;;;;;;7.53;7.03;;;21.70;36.50;;;;;;10442547;28;20232;-78
2021/06/08 00:17:13;;;;;;;7.67;7.17;;;21.60;37.40;;;;;;10433790;28;20233;-78
2021/06/08 00:22:16;;;;;;;7.33;6.60;;;21.60;37.60;;;;;;10435764;28;20332;-78
2021/06/08 00:27:18;;;;;;;7.13;6.57;;;21.50;37.10;;;;;;10434177;28;20216;-78
2021/06/08 00:32:22;;;;;;;7.60;7.00;;;21.50;37.50;;;;;;10433262;28;20597;-78
2021/06/08 00:37:25;;;;;;;7.03;6.53;;;21.50;37.80;;;;;;10440539;28;20217;-78
2021/06/08 00:42:29;;;;;;;7.57;7.07;;;21.60;37.90;;;;;;10440490;28;20233;-78
2021/06/08 00:47:33;;;;;;;8.13;7.43;;;21.60;38.00;;;;;;10448370;28;20229;-78
2021/06/08 00:52:36;;;;;;;7.77;7.20;;;21.50;37.80;;;;;;10437356;28;20229;-78
2021/06/08 00:57:39;;;;;;;7.97;7.47;;;21.50;37.80;;;;;;10432086;28;20266;-78
2021/06/08 01:02:43;;;;;;;8.20;7.60;;;21.50;37.80;;;;;;10426449;28;20221;-78
2021/06/08 01:07:46;;;;;;;8.17;7.57;;;21.50;37.80;;;;;;10440933;28;20687;-78
2021/06/08 01:12:50;;;;;;;8.40;7.73;;;21.50;37.80;;;;;;10430994;28;20231;-78
2021/06/08 01:17:54;;;;;;;8.47;7.80;;;21.40;37.70;;;;;;10429269;28;20308;-82
2021/06/08 01:22:58;;;;;;;8.80;7.93;;;21.30;38.20;;;;;;10430355;28;20235;-82
2021/06/08 01:28:02;;;;;;;8.20;7.60;;;21.20;38.50;;;;;;10424361;28;20218;-80
2021/06/08 01:33:06;;;;;;;7.20;6.60;;;21.10;38.40;;;;;;10431474;28;20221;-82
2021/06/08 01:38:10;;;;;;;8.73;8.13;;;21.10;38.10;;;;;;10432717;28;20254;-82
2021/06/08 01:43:14;;;;;;;8.50;7.80;;;21.10;39.30;;;;;;10437268;28;20757;-82
2021/06/08 01:48:18;;;;;;;6.93;6.40;;;21.10;38.80;;;;;;10434040;28;20300;-82
2021/06/08 01:53:29;;;;;;;6.93;6.43;;;21.10;38.60;;;;;;10428867;28;20319;-82
2021/06/08 01:58:41;;;;;;;7.37;6.70;;;21.10;39.30;;;;;;10434750;28;20221;-82
2021/06/08 02:03:54;;;;;;;7.90;7.20;;;21.10;39.50;;;;;;10445918;28;20304;-82
2021/06/08 02:09:05;;;;;;;8.10;7.50;;;21.20;39.70;;;;;;10443900;28;20721;-82
2021/06/08 02:14:15;;;;;;;7.03;6.47;;;21.20;39.50;;;;;;10435731;28;20229;-82
2021/06/08 02:19:21;;;;;;;7.07;6.47;;;21.20;39.30;;;;;;10423772;28;20224;-82
2021/06/08 02:24:27;;;;;;;7.50;7.00;;;21.30;39.10;;;;;;10396665;28;20236;-82
2021/06/08 02:29:30;;;;;;;6.57;6.17;;;21.20;39.10;;;;;;10408363;28;20659;-82
2021/06/08 02:34:34;;;;;;;7.73;7.13;;;21.20;38.80;;;;;;10394295;28;20232;-82
2021/06/08 02:39:39;;;;;;;7.57;6.97;;;21.20;39.30;;;;;;10404178;28;20227;-83
2021/06/08 02:44:43;;;;;;;7.50;6.80;;;21.20;39.50;;;;;;10406240;28;20236;-82
2021/06/08 02:49:47;;;;;;;7.87;7.17;;;21.20;39.30;;;;;;10398871;28;20222;-82
2021/06/08 02:54:52;;;;;;;7.60;7.00;;;21.20;39.30;;;;;;10402316;28;20232;-82
2021/06/08 03:00:02;;;;;;;7.87;7.13;;;21.20;39.70;;;;;;10406606;28;20759;-82
2021/06/08 03:05:08;;;;;;;7.50;6.97;;;21.20;39.20;;;;;;10422392;28;20764;-82
2021/06/08 03:10:16;;;;;;;7.97;7.37;;;21.20;39.50;;;;;;10442248;28;20312;-82
2021/06/08 03:15:21;;;;;;;8.20;7.60;;;21.10;39.70;;;;;;10438532;28;20332;-82
2021/06/08 03:20:31;;;;;;;8.00;7.43;;;21.10;39.70;;;;;;10444962;28;20239;-82
2021/06/08 03:25:37;;;;;;;7.50;6.90;;;21.00;40.00;;;;;;10439081;28;20303;-82
2021/06/08 03:30:40;;;;;;;7.07;6.57;;;21.00;39.80;;;;;;10444535;28;20225;-82
2021/06/08 03:35:44;;;;;;;8.03;7.33;;;21.00;39.50;;;;;;10436734;28;20228;-82
2021/06/08 03:40:48;;;;;;;7.00;6.50;;;21.00;39.90;;;;;;10441897;28;20646;-82
2021/06/08 03:45:51;;;;;;;7.87;7.33;;;21.00;40.00;;;;;;10442353;28;20308;-82
2021/06/08 03:50:54;;;;;;;8.00;7.50;;;21.00;39.90;;;;;;10441153;28;20253;-82
2021/06/08 03:55:59;;;;;;;8.37;7.77;;;21.00;39.90;;;;;;10432996;28;20279;-82
2021/06/08 04:01:02;;;;;;;7.33;6.73;;;21.00;40.50;;;;;;10433946;28;20739;-81
2021/06/08 04:06:05;;;;;;;8.17;7.60;;;20.90;39.90;;;;;;10434959;28;20310;-81
2021/06/08 04:11:12;;;;;;;8.40;7.50;;;20.90;40.30;;;;;;10440825;28;20406;-82
2021/06/08 04:16:15;;;;;;;8.57;7.90;;;21.00;41.10;;;;;;10433627;28;20229;-80
2021/06/08 04:21:22;;;;;;;8.80;8.03;;;21.00;40.50;;;;;;10434765;28;20233;-81
2021/06/08 04:26:28;;;;;;;8.03;7.53;;;20.90;41.20;;;;;;10435035;28;20225;-81
2021/06/08 04:31:30;;;;;;;9.20;8.40;;;21.00;40.80;;;;;;10429799;28;20771;-82
2021/06/08 04:36:34;;;;;;;9.07;8.37;;;21.00;40.60;;;;;;10446301;28;20229;-82
2021/06/08 04:41:39;;;;;;;8.10;7.50;;;21.00;40.60;;;;;;10427664;28;20220;-82
2021/06/08 04:46:41;;;;;;;10.00;9.10;;;21.00;41.10;;;;;;10440928;28;20712;-82
2021/06/08 04:51:44;;;;;;;9.87;9.10;;;20.90;40.70;;;;;;10436876;28;20248;-82
2021/06/08 04:56:49;;;;;;;10.13;9.23;;;20.90;40.80;;;;;;10439709;28;20225;-83
2021/06/08 05:01:52;;;;;;;10.10;9.30;;;20.90;41.40;;;;;;10445400;28;20225;-83
2021/06/08 05:06:59;;;;;;;9.90;9.10;;;20.90;41.50;;;;;;10441532;28;20722;-83
2021/06/08 05:12:07;;;;;;;10.43;9.53;;;20.90;41.80;;;;;;10433391;28;20225;-81
2021/06/08 05:17:26;;;;;;;9.70;9.00;;;21.00;42.00;;;;;;10411725;28;20228;-84
2021/06/08 05:22:29;;;;;;;9.30;8.60;;;21.00;41.60;;;;;;10427866;28;20232;-83
2021/06/08 05:27:38;;;;;;;9.77;8.77;;;21.10;41.60;;;;;;10434137;28;20745;-78
2021/06/08 05:32:44;;;;;;;9.67;8.97;;;21.10;42.50;;;;;;10440301;28;20238;-80
2021/06/08 05:37:47;;;;;;;7.90;7.40;;;21.20;42.40;;;;;;10437213;28;20299;-79
2021/06/08 05:42:53;;;;;;;9.57;8.77;;;21.30;41.80;;;;;;10434029;28;20661;-80
2021/06/08 05:47:56;;;;;;;9.60;8.90;;;21.30;42.50;;;;;;10434271;28;20245;-80
2021/06/08 05:53:00;;;;;;;10.47;9.57;;;21.40;42.00;;;;;;10428041;28;20239;-78
2021/06/08 05:58:04;;;;;;;10.63;9.50;;;21.50;42.10;;;;;;10438647;28;20257;-78
2021/06/08 06:03:07;;;;;;;10.27;9.47;;;21.60;42.40;;;;;;10440071;28;20225;-77
2021/06/08 06:08:10;;;;;;;10.33;9.60;;;21.70;42.20;;;;;;10437921;28;20977;-78
2021/06/08 06:13:16;;;;;;;10.77;9.83;;;21.80;42.30;;;;;;10433477;28;20220;-78
2021/06/08 06:18:20;;;;;;;10.40;9.60;;;21.90;42.20;;;;;;10422637;28;20264;-77
2021/06/08 06:23:24;;;;;;;10.63;9.90;;;22.00;41.90;;;;;;10434944;28;20236;-76
2021/06/08 06:28:29;;;;;;;11.03;10.13;;;22.10;41.80;;;;;;10423370;28;20719;-75
2021/06/08 06:33:32;;;;;;;10.93;10.13;;;22.20;42.20;;;;;;10429251;28;20232;-75
2021/06/08 06:38:36;;;;;;;10.63;9.83;;;22.20;41.70;;;;;;10431508;28;20233;-75
2021/06/08 06:43:44;;;;;;;10.33;9.53;;;22.30;41.70;;;;;;10426851;28;21248;-77
2021/06/08 06:48:51;;;;;;;10.67;9.87;;;22.40;41.90;;;;;;10432263;28;20605;-77
2021/06/08 06:53:55;;;;;;;10.00;9.20;;;22.60;41.60;;;;;;10429646;28;20220;-77
2021/06/08 06:59:00;;;;;;;10.27;9.47;;;22.70;41.60;;;;;;10433631;28;20217;-77
2021/06/08 07:04:04;;;;;;;11.20;10.40;;;22.90;41.70;;;;;;10429417;28;20303;-77
2021/06/08 07:09:07;;;;;;;10.47;9.57;;;23.10;41.30;;;;;;10428517;28;20232;-77
2021/06/08 07:14:12;;;;;;;10.50;9.70;;;23.20;41.10;;;;;;10426257;28;20230;-77
2021/06/08 07:19:15;;;;;;;10.50;9.77;;;23.30;41.10;;;;;;10427057;28;20582;-77
2021/06/08 07:24:18;;;;;;;10.10;9.30;;;23.50;41.30;;;;;;10436053;28;20325;-79
2021/06/08 07:29:22;;;;;;;10.73;9.93;;;23.60;41.20;;;;;;10422408;28;20225;-78
2021/06/08 07:34:28;;;;;;;10.70;9.90;;;23.80;41.00;;;;;;10429886;28;20228;-77
2021/06/08 07:39:37;;;;;;;10.67;9.80;;;24.00;41.00;;;;;;10427866;28;20235;-78
2021/06/08 07:44:46;;;;;;;10.27;9.47;;;24.10;40.90;;;;;;10420524;28;20240;-77
2021/06/08 07:49:52;;;;;;;10.30;9.50;;;24.30;40.30;;;;;;10416203;28;20237;-77
2021/06/08 07:54:56;;;;;;;10.10;9.40;;;24.40;40.40;;;;;;10420181;28;20222;-77
2021/06/08 08:00:00;;;;;;;11.70;10.80;;;24.60;40.50;;;;;;10423096;28;20231;-77
2021/06/08 08:05:08;;;;;;;10.53;9.73;;;24.70;40.60;;;;;;10430115;28;20239;-76
2021/06/08 08:10:11;;;;;;;10.13;9.43;;;24.90;40.80;;;;;;10423324;28;20723;-76
2021/06/08 08:15:18;;;;;;;11.03;10.23;;;25.10;41.00;;;;;;10430251;28;20233;-77
2021/06/08 08:20:35;;;;;;;10.70;9.80;;;25.30;39.40;;;;;;10433020;28;21766;-76
2021/06/08 08:25:38;;;;;;;9.03;8.23;;;25.50;39.00;;;;;;10426624;28;20221;-76
2021/06/08 08:30:42;;;;;;;10.23;9.53;;;25.70;39.40;;;;;;10424327;28;20254;-76
2021/06/08 08:35:45;;;;;;;9.73;9.03;;;25.90;38.40;;;;;;10417963;28;20955;-76
2021/06/08 08:40:49;;;;;;;9.63;8.70;;;26.00;38.60;;;;;;10428767;28;20220;-76
2021/06/08 08:46:14;;;;;;;9.93;9.17;;;26.10;38.70;;;;;;10425595;28;20240;-76
2021/06/08 08:51:17;;;;;;;8.83;8.13;;;26.40;38.10;;;;;;10415778;28;20256;-76
2021/06/08 08:56:22;;;;;;;10.07;9.37;;;26.60;38.30;;;;;;10422028;28;20237;-76
2021/06/08 09:01:27;;;;;;;9.47;8.83;;;26.80;37.00;;;;;;10423678;28;20246;-75
2021/06/08 09:06:30;;;;;;;9.53;8.83;;;27.00;36.70;;;;;;10430806;28;20244;-75
2021/06/08 09:11:37;;;;;;;9.43;8.63;;;27.10;36.60;;;;;;10426285;28;20236;-75
2021/06/08 09:16:42;;;;;;;9.87;9.07;;;27.20;36.60;;;;;;10427911;28;20233;-74
2021/06/08 09:21:54;;;;;;;9.90;9.17;;;27.30;36.50;;;;;;10426669;28;20307;-75
2021/06/08 09:27:01;;;;;;;10.40;9.60;;;27.40;35.40;;;;;;10418817;28;20682;-75
2021/06/08 09:32:20;;;;;;;10.50;9.67;;;27.70;35.70;;;;;;10427162;28;20607;-75
2021/06/08 09:37:34;;;;;;;9.70;9.10;;;27.90;35.30;;;;;;10426060;28;20310;-75
2021/06/08 09:42:37;;;;;;;9.63;8.83;;;28.10;34.30;;;;;;10422307;28;20256;-74
2021/06/08 09:47:58;;;;;;;9.23;8.43;;;28.30;34.70;;;;;;10424462;28;20224;-74
2021/06/08 09:53:22;;;;;;;9.23;8.53;;;28.40;33.20;;;;;;10420846;28;20323;-77
2021/06/08 09:58:26;;;;;;;8.10;7.60;;;28.60;33.10;;;;;;10419388;28;20307;-74
2021/06/08 10:03:35;;;;;;;7.73;7.23;;;28.60;33.10;;;;;;10423642;28;21102;-75
2021/06/08 10:08:49;;;;;;;7.80;7.20;;;28.70;31.20;;;;;;10422183;28;20333;-74
2021/06/08 10:13:58;;;;;;;7.40;6.90;;;28.70;31.70;;;;;;10425839;28;20225;-77
2021/06/08 10:19:04;;;;;;;7.40;6.70;;;28.70;30.60;;;;;;10426788;28;20234;-76
2021/06/08 10:24:10;;;;;;;8.23;7.63;;;28.80;30.80;;;;;;10432629;28;20230;-76
2021/06/08 10:29:14;;;;;;;7.13;6.63;;;28.90;30.50;;;;;;10433684;28;20229;-76
2021/06/08 10:34:22;;;;;;;7.10;6.60;;;28.90;30.80;;;;;;10425900;28;20762;-76
2021/06/08 10:39:27;;;;;;;7.87;7.27;;;28.90;30.30;;;;;;10430060;28;20224;-76
2021/06/08 10:44:31;;;;;;;7.80;7.20;;;29.00;30.90;;;;;;10426521;28;20871;-77
2021/06/08 10:49:36;;;;;;;7.07;6.50;;;29.00;30.60;;;;;;10436677;28;20246;-76
2021/06/08 10:54:41;;;;;;;6.73;6.33;;;29.20;29.10;;;;;;10425262;28;20233;-76
2021/06/08 10:59:46;;;;;;;6.73;6.33;;;29.20;29.90;;;;;;10434991;28;20306;-76
2021/06/08 11:04:53;;;;;;;7.33;6.73;;;29.30;29.40;;;;;;10426899;28;20430;-76
2021/06/08 11:09:58;;;;;;;7.47;6.87;;;29.40;28.60;;;;;;10435703;28;20227;-77
2021/06/08 11:15:01;;;;;;;6.70;6.30;;;29.50;29.30;;;;;;10429556;28;20221;-76
2021/06/08 11:20:17;;;;;;;8.23;7.53;;;29.50;28.90;;;;;;10430814;28;20628;-77
2021/06/08 11:25:37;;;;;;;7.27;6.57;;;29.40;27.10;;;;;;10433561;28;20236;-76
2021/06/08 11:30:42;;;;;;;6.80;6.37;;;29.40;27.60;;;;;;10422608;28;20316;-76
2021/06/08 11:35:47;;;;;;;6.83;6.43;;;29.40;28.00;;;;;;10420075;28;20218;-77
2021/06/08 11:40:52;;;;;;;6.63;6.20;;;29.40;27.20;;;;;;10426611;28;20231;-77
2021/06/08 11:46:03;;;;;;;6.17;5.77;;;29.30;27.70;;;;;;10424667;28;20256;-77
2021/06/08 11:51:34;;;;;;;6.07;5.57;;;29.40;27.10;;;;;;10426754;28;20229;-76
2021/06/08 11:56:49;;;;;;;6.63;6.23;;;29.40;27.50;;;;;;10429740;28;20221;-76
2021/06/08 12:01:55;;;;;;;6.97;6.47;;;29.50;27.30;;;;;;10431553;28;20760;-75
2021/06/08 12:07:10;;;;;;;6.93;6.40;;;29.60;27.50;;;;;;10426600;28;20228;-75
2021/06/08 12:12:15;;;;;;;6.17;5.77;;;29.60;27.50;;;;;;10429081;28;20236;-75
2021/06/08 12:17:18;;;;;;;5.33;5.03;;;29.70;27.10;;;;;;10436486;28;20279;-75
2021/06/08 12:22:29;;;;;;;6.00;5.60;;;29.80;27.20;;;;;;10425444;28;20311;-75
2021/06/08 12:27:34;;;;;;;6.03;5.53;;;29.90;26.10;;;;;;10428170;28;20264;-75
2021/06/08 12:32:38;;;;;;;6.10;5.40;;;30.10;26.80;;;;;;10424154;28;20229;-75
2021/06/08 12:37:42;;;;;;;5.17;4.87;;;30.20;26.10;;;;;;10433105;28;20235;-75
2021/06/08 12:42:46;;;;;;;5.80;5.40;;;30.20;25.90;;;;;;10428793;28;20226;-77
2021/06/08 12:47:49;;;;;;;5.70;5.20;;;30.20;26.10;;;;;;10424398;28;20222;-77
2021/06/08 12:53:01;;;;;;;5.33;4.90;;;30.20;26.00;;;;;;10431472;28;20248;-77
2021/06/08 12:58:11;;;;;;;4.77;4.40;;;30.20;24.30;;;;;;10421602;28;20221;-77
2021/06/08 13:03:14;;;;;;;5.07;4.67;;;30.30;25.10;;;;;;10426130;28;20228;-78
2021/06/08 13:08:19;;;;;;;4.97;4.67;;;30.30;25.10;;;;;;10424068;28;20236;-78
2021/06/08 13:13:22;;;;;;;5.50;5.10;;;30.30;24.10;;;;;;10427204;28;20712;-78
2021/06/08 13:18:26;;;;;;;7.30;6.73;;;30.40;25.20;;;;;;10422589;28;20243;-78
2021/06/08 13:23:32;;;;;;;6.93;6.43;;;30.40;26.00;;;;;;10422978;28;20237;-78
2021/06/08 13:28:37;;;;;;;7.37;6.87;;;30.30;25.50;;;;;;10428139;28;20238;-78
2021/06/08 13:33:41;;;;;;;7.20;6.60;;;30.00;25.60;;;;;;10427234;28;20229;-78
2021/06/08 13:38:45;;;;;;;6.93;6.47;;;29.80;25.60;;;;;;10427775;28;20218;-75
2021/06/08 13:43:49;;;;;;;6.97;6.47;;;29.50;26.00;;;;;;10428621;28;20228;-75
2021/06/08 13:48:57;;;;;;;6.70;6.20;;;29.30;26.30;;;;;;10423494;28;20874;-75
2021/06/08 13:54:09;;;;;;;7.20;6.60;;;29.10;26.30;;;;;;10420927;28;20234;-77
2021/06/08 14:04:42;;;;;;;6.83;6.33;;;28.90;26.50;;;;;;10421721;28;20253;-77
2021/06/08 14:09:48;;;;;;;6.80;6.30;;;28.90;26.60;;;;;;10422622;28;20228;-78
2021/06/08 14:15:04;;;;;;;7.37;6.87;;;28.90;26.80;;;;;;10423513;28;20233;-75
2021/06/08 14:20:08;;;;;;;7.10;6.53;;;29.00;26.30;;;;;;10424382;28;20308;-75
2021/06/08 14:25:14;;;;;;;7.10;6.60;;;28.90;26.40;;;;;;10429303;28;20781;-75
2021/06/08 14:30:18;;;;;;;7.10;6.50;;;28.90;26.00;;;;;;10430284;28;20229;-76
2021/06/08 14:35:21;;;;;;;7.13;6.63;;;28.80;26.20;;;;;;10417809;28;20240;-76
2021/06/08 14:40:26;;;;;;;7.13;6.63;;;28.70;26.20;;;;;;10432335;28;20228;-76
2021/06/08 14:45:29;;;;;;;6.63;6.23;;;28.70;26.00;;;;;;10422709;28;20239;-75
2021/06/08 14:50:31;;;;;;;6.90;6.40;;;28.70;26.90;;;;;;10422716;28;20229;-75
2021/06/08 14:55:36;;;;;;;6.57;6.17;;;28.70;26.60;;;;;;10428045;28;20249;-77
2021/06/08 15:00:39;;;;;;;6.00;5.60;;;28.70;26.10;;;;;;10423227;28;20227;-77
2021/06/08 15:05:42;;;;;;;6.03;5.60;;;28.60;26.20;;;;;;10424078;28;20221;-77
2021/06/08 15:10:46;;;;;;;5.80;5.40;;;28.60;26.40;;;;;;10432251;28;20609;-77
2021/06/08 15:15:49;;;;;;;6.87;6.37;;;28.50;26.50;;;;;;10428812;28;20239;-73
2021/06/08 15:20:52;;;;;;;6.50;6.03;;;28.40;26.70;;;;;;10440160;28;20282;-78
2021/06/08 15:25:57;;;;;;;5.97;5.57;;;28.40;26.80;;;;;;10429748;28;20221;-78
2021/06/08 15:31:03;;;;;;;6.03;5.63;;;28.30;26.20;;;;;;10423272;28;20911;-78
2021/06/08 15:36:07;;;;;;;5.93;5.53;;;28.10;26.40;;;;;;10430364;28;20233;-78
2021/06/08 15:41:12;;;;;;;5.73;5.33;;;28.00;26.70;;;;;;10431762;28;20235;-79
2021/06/08 15:46:14;;;;;;;6.03;5.63;;;27.70;26.90;;;;;;10429099;28;20229;-78
2021/06/08 15:51:17;;;;;;;5.43;5.13;;;27.60;27.10;;;;;;10435669;28;20235;-78
2021/06/08 15:56:23;;;;;;;6.23;5.70;;;27.50;27.20;;;;;;10424809;28;20217;-78
2021/06/08 16:01:26;;;;;;;6.07;5.67;;;27.40;26.90;;;;;;10436000;28;20227;-78
2021/06/08 16:06:29;;;;;;;5.93;5.53;;;27.30;26.90;;;;;;10428372;28;20566;-77
2021/06/08 16:11:34;;;;;;;5.83;5.43;;;27.10;27.10;;;;;;10419691;28;20229;-78
2021/06/08 16:16:36;;;;;;;6.33;5.93;;;26.90;27.40;;;;;;10430453;28;20233;-77
2021/06/08 16:21:39;;;;;;;6.17;5.67;;;26.80;27.50;;;;;;10429726;28;20896;-77
2021/06/08 16:26:44;;;;;;;5.77;5.37;;;26.50;27.50;;;;;;10425833;28;20697;-77
2021/06/08 16:31:47;;;;;;;5.30;5.00;;;26.40;27.70;;;;;;10427971;28;20638;-77
2021/06/08 16:36:51;;;;;;;5.00;4.70;;;26.20;27.70;;;;;;10427599;28;20709;-77
2021/06/08 16:41:56;;;;;;;4.50;4.10;;;26.00;27.90;;;;;;10430726;28;20239;-77
2021/06/08 16:46:59;;;;;;;4.60;4.30;;;25.90;27.60;;;;;;10429891;28;20465;-77
2021/06/08 16:57:27;;;;;;;5.40;5.00;;;25.80;28.10;;;;;;10426621;28;20235;-77
2021/06/08 17:02:30;;;;;;;5.73;5.17;;;25.80;28.30;;;;;;10424503;28;20229;-76
2021/06/08 17:07:33;;;;;;;5.70;5.30;;;25.80;28.20;;;;;;10423970;28;20222;-76
2021/06/08 17:12:37;;;;;;;6.07;5.50;;;25.80;28.30;;;;;;10426893;28;20230;-76
2021/06/08 17:17:40;;;;;;;5.50;5.10;;;25.70;28.50;;;;;;10426111;28;20895;-77
2021/06/08 17:22:43;;;;;;;5.70;5.30;;;25.50;28.70;;;;;;10424757;28;20232;-72
2021/06/08 17:27:47;;;;;;;5.53;5.13;;;25.40;28.90;;;;;;10424772;28;20228;-76
2021/06/08 17:32:50;;;;;;;6.00;5.53;;;25.30;28.80;;;;;;10424751;28;20229;-76
2021/06/08 17:37:53;;;;;;;6.40;5.93;;;25.20;28.80;;;;;;10424624;28;20324;-74
2021/06/08 17:42:57;;;;;;;6.40;5.90;;;25.10;29.00;;;;;;10428896;28;20618;-74
2021/06/08 17:48:00;;;;;;;5.90;5.30;;;25.10;29.50;;;;;;10425161;28;20292;-74
2021/06/08 17:53:03;;;;;;;5.87;5.47;;;25.10;29.40;;;;;;10408859;28;20236;-75
2021/06/08 17:58:07;;;;;;;6.63;6.13;;;25.10;29.50;;;;;;10413071;28;20247;-74
2021/06/08 18:03:10;;;;;;;6.60;6.00;;;25.20;29.70;;;;;;10425293;28;20237;-74
2021/06/08 18:08:14;;;;;;;6.50;6.00;;;25.20;29.50;;;;;;10420365;28;20801;-74
2021/06/08 18:13:18;;;;;;;6.30;5.80;;;25.10;29.60;;;;;;10423069;28;20748;-74
2021/06/08 18:18:34;;;;;;;6.27;5.87;;;25.10;29.80;;;;;;10419620;28;20234;-74
2021/06/08 18:23:37;;;;;;;6.70;6.10;;;25.20;29.80;;;;;;10423473;28;20319;-75
2021/06/08 18:28:42;;;;;;;6.50;6.00;;;25.20;29.60;;;;;;10427779;28;20218;-76
2021/06/08 18:33:44;;;;;;;6.33;5.83;;;25.20;29.70;;;;;;10425281;28;20662;-75
2021/06/08 18:38:47;;;;;;;6.37;5.90;;;25.20;29.60;;;;;;10428333;28;20259;-75
2021/06/08 18:43:51;;;;;;;6.40;6.00;;;25.20;29.60;;;;;;10429963;28;20308;-78
2021/06/08 18:48:54;;;;;;;6.87;6.37;;;25.10;29.90;;;;;;10445695;28;20589;-78
2021/06/08 18:53:57;;;;;;;6.60;6.13;;;25.10;29.70;;;;;;10433265;28;20646;-78
2021/06/08 18:59:01;;;;;;;6.47;5.93;;;25.20;30.00;;;;;;10432245;28;20225;-78
2021/06/08 19:04:06;;;;;;;6.50;6.00;;;25.10;30.00;;;;;;10423363;28;20927;-78
2021/06/08 19:09:10;;;;;;;7.10;6.50;;;25.10;29.90;;;;;;10435895;28;20316;-78
2021/06/08 19:14:14;;;;;;;7.33;6.63;;;25.00;29.80;;;;;;10428814;28;20769;-79
2021/06/08 19:19:17;;;;;;;7.23;6.63;;;24.90;30.00;;;;;;10432390;28;20225;-78
2021/06/08 19:24:19;;;;;;;7.50;6.83;;;24.80;29.90;;;;;;10433791;28;20282;-78
2021/06/08 19:29:24;;;;;;;7.00;6.50;;;24.70;30.00;;;;;;10429670;28;20220;-79
2021/06/08 19:34:27;;;;;;;7.03;6.23;;;24.60;30.30;;;;;;10434032;28;20233;-78
2021/06/08 19:39:30;;;;;;;7.10;6.50;;;24.50;30.30;;;;;;10432079;28;20232;-78
2021/06/08 19:44:34;;;;;;;7.17;6.67;;;24.50;30.60;;;;;;10429660;28;20229;-78
2021/06/08 19:49:36;;;;;;;6.87;6.47;;;24.50;31.00;;;;;;10433436;28;20316;-78
2021/06/08 19:54:39;;;;;;;6.60;6.10;;;24.50;30.90;;;;;;10429786;28;20316;-79
2021/06/08 19:59:47;;;;;;;7.20;6.60;;;24.50;31.00;;;;;;10427567;28;20313;-78
2021/06/08 20:04:50;;;;;;;7.37;6.87;;;24.40;31.30;;;;;;10428031;28;20228;-78
2021/06/08 20:09:53;;;;;;;6.57;6.07;;;24.30;31.10;;;;;;10430717;28;20235;-78
2021/06/08 20:14:57;;;;;;;7.23;6.63;;;24.30;31.20;;;;;;10431368;28;20225;-78
2021/06/08 20:20:00;;;;;;;7.20;6.60;;;24.30;31.60;;;;;;10434551;28;20300;-78
2021/06/08 20:25:04;;;;;;;7.23;6.73;;;24.30;31.50;;;;;;10434469;28;20311;-78
2021/06/08 20:30:09;;;;;;;6.83;6.30;;;24.30;31.50;;;;;;10431697;28;20312;-78
2021/06/08 20:35:13;;;;;;;7.10;6.50;;;24.30;31.90;;;;;;10436833;28;20244;-78
2021/06/08 20:40:17;;;;;;;6.83;6.33;;;24.20;31.60;;;;;;10426720;28;20229;-79
2021/06/08 20:45:24;;;;;;;7.27;6.73;;;24.10;31.60;;;;;;10433613;28;20264;-79
2021/06/08 20:50:28;;;;;;;7.23;6.63;;;24.10;31.80;;;;;;10428925;28;20257;-80
2021/06/08 20:55:30;;;;;;;8.17;7.53;;;24.00;31.70;;;;;;10435280;28;20239;-78
2021/06/08 21:00:35;;;;;;;8.23;7.63;;;23.90;31.50;;;;;;10441902;28;20410;-79
2021/06/08 21:05:37;;;;;;;7.87;7.37;;;23.60;32.10;;;;;;10437509;28;20225;-79
2021/06/08 21:10:40;;;;;;;7.90;7.20;;;23.40;31.80;;;;;;10430766;28;20235;-78
2021/06/08 21:15:46;;;;;;;8.03;7.43;;;23.20;32.30;;;;;;10430484;28;20236;-74
2021/06/08 21:20:49;;;;;;;7.43;6.90;;;23.00;32.90;;;;;;10422104;28;20628;-74
2021/06/08 21:25:52;;;;;;;8.20;7.53;;;22.80;32.40;;;;;;10421600;28;20248;-74
2021/06/08 21:30:56;;;;;;;8.57;7.87;;;22.70;33.00;;;;;;10426228;28;20264;-74
2021/06/08 21:35:59;;;;;;;8.37;7.67;;;22.60;33.70;;;;;;10383958;28;20233;-74
2021/06/08 21:41:01;;;;;;;7.97;7.30;;;22.50;33.40;;;;;;10381171;28;20222;-74
2021/06/08 21:46:05;;;;;;;8.37;7.57;;;22.40;33.50;;;;;;10381522;28;20249;-74
2021/06/08 21:51:09;;;;;;;7.73;7.00;;;22.30;34.10;;;;;;10396973;28;20228;-74
2021/06/08 21:56:12;;;;;;;7.70;7.10;;;22.30;33.80;;;;;;10423180;28;20244;-74
2021/06/08 22:01:16;;;;;;;8.37;7.67;;;22.30;33.90;;;;;;10422525;28;20247;-74
2021/06/08 22:06:19;;;;;;;8.70;8.00;;;22.30;34.60;;;;;;10420752;28;20241;-74
2021/06/08 22:11:22;;;;;;;8.27;7.67;;;22.30;34.00;;;;;;10429220;28;20243;-74
2021/06/08 22:16:26;;;;;;;8.57;7.77;;;22.30;34.00;;;;;;10423849;28;20228;-74
2021/06/08 22:21:29;;;;;;;8.57;7.97;;;22.20;34.60;;;;;;10431807;28;20229;-74
2021/06/08 22:26:31;;;;;;;8.13;7.43;;;22.20;34.20;;;;;;10429011;28;20247;-74
2021/06/08 22:31:35;;;;;;;8.70;7.90;;;22.20;34.20;;;;;;10436227;28;20229;-74
2021/06/08 22:36:38;;;;;;;8.60;8.00;;;22.10;34.50;;;;;;10431929;28;20575;-74
2021/06/08 22:41:41;;;;;;;8.57;7.90;;;22.10;34.30;;;;;;10433169;28;20225;-74
2021/06/08 22:46:45;;;;;;;7.80;7.10;;;22.00;34.50;;;;;;10427698;28;20223;-74
2021/06/08 22:51:48;;;;;;;8.30;7.47;;;21.90;34.90;;;;;;10431504;28;20229;-74
2021/06/08 22:56:53;;;;;;;8.30;7.70;;;21.90;34.80;;;;;;10424561;28;20247;-74
2021/06/08 23:01:57;;;;;;;8.87;8.17;;;21.80;34.80;;;;;;10428985;28;20237;-73
2021/06/08 23:07:00;;;;;;;8.70;8.00;;;21.80;35.40;;;;;;10429003;28;20228;-74
2021/06/08 23:12:04;;;;;;;8.33;7.63;;;21.60;35.00;;;;;;10434146;28;20231;-74
2021/06/08 23:17:08;;;;;;;8.07;7.47;;;21.50;35.30;;;;;;10424953;28;21857;-74
2021/06/08 23:22:11;;;;;;;8.97;8.20;;;21.30;35.80;;;;;;10430120;28;20232;-73
2021/06/08 23:27:13;;;;;;;8.73;7.97;;;21.20;35.50;;;;;;10429443;28;20233;-74
2021/06/08 23:32:17;;;;;;;8.60;7.90;;;21.10;35.80;;;;;;10429207;28;20631;-74
2021/06/08 23:37:20;;;;;;;8.43;7.73;;;21.00;36.40;;;;;;10433529;28;20598;-74
2021/06/08 23:42:23;;;;;;;9.53;8.80;;;21.00;35.90;;;;;;10429450;28;20232;-73
2021/06/08 23:47:28;;;;;;;10.70;8.60;;;20.90;36.20;;;;;;10423013;28;20698;-73
2021/06/08 23:52:31;;;;;;;8.77;8.07;;;20.90;36.70;;;;;;10432466;28;20234;-74
2021/06/08 23:57:34;;;;;;;9.20;8.50;;;20.90;36.10;;;;;;10431327;28;20990;-74
